createdAt,value
2023-12-31T00:04:06.286Z,21.25
2023-12-31T00:09:12.265Z,18.75
2023-12-31T00:14:18.936Z,21.50
2023-12-31T00:19:25.507Z,19.00
2023-12-31T00:24:30.416Z,21.50
2023-12-31T00:29:35.881Z,18.00
2023-12-31T00:34:42.265Z,16.75
2023-12-31T00:39:47.540Z,21.00
2023-12-31T00:44:53.644Z,21.75
2023-12-31T00:49:59.423Z,19.50
2023-12-31T00:55:04.511Z,22.50
2023-12-31T01:00:10.904Z,23.75
2023-12-31T01:05:16.604Z,20.25
2023-12-31T01:10:22.325Z,16.50
2023-12-31T01:15:27.708Z,19.50
2023-12-31T01:20:32.806Z,18.00
2023-12-31T01:25:38.993Z,19.25
2023-12-31T01:30:45.397Z,21.00
2023-12-31T01:35:50.306Z,18.50
2023-12-31T01:40:56.047Z,17.00
2023-12-31T01:46:01.576Z,18.25
2023-12-31T01:51:06.911Z,19.50
2023-12-31T01:56:12.508Z,16.00
2023-12-31T02:01:19.209Z,19.75
2023-12-31T02:06:25.369Z,16.75
2023-12-31T02:11:32.535Z,17.75
2023-12-31T02:16:38.291Z,15.50
2023-12-31T02:21:43.839Z,17.50
2023-12-31T02:26:49.826Z,21.00
2023-12-31T02:31:55.903Z,17.00
2023-12-31T02:37:01.781Z,22.00
2023-12-31T02:42:07.147Z,20.75
2023-12-31T02:47:14.799Z,22.50
2023-12-31T02:52:19.713Z,17.50
2023-12-31T02:57:25.381Z,19.00
2023-12-31T03:02:31.553Z,20.50
2023-12-31T03:07:39.697Z,20.00
2023-12-31T03:12:44.682Z,19.75
2023-12-31T03:17:50.640Z,19.50
2023-12-31T03:22:56.488Z,23.00
2023-12-31T03:28:02.277Z,20.25
2023-12-31T03:33:07.997Z,18.75
2023-12-31T03:38:14.332Z,21.75
2023-12-31T03:43:19.605Z,17.50
2023-12-31T03:48:24.960Z,18.00
2023-12-31T03:53:30.723Z,24.50
2023-12-31T03:58:36.582Z,20.00
2023-12-31T04:03:42.244Z,19.50
2023-12-31T04:08:47.659Z,17.75
2023-12-31T04:13:53.999Z,24.25
2023-12-31T04:19:01.664Z,19.25
2023-12-31T04:24:07.844Z,22.75
2023-12-31T04:29:13.855Z,24.00
2023-12-31T04:34:20.085Z,23.75
2023-12-31T04:39:27.478Z,24.25
2023-12-31T04:44:32.751Z,18.75
2023-12-31T04:49:39.792Z,23.50
2023-12-31T04:54:46.446Z,19.00
2023-12-31T04:59:53.318Z,16.25
2023-12-31T05:05:00.266Z,19.00
2023-12-31T05:10:07.909Z,17.25
2023-12-31T05:15:13.528Z,17.25
2023-12-31T05:20:18.913Z,17.00
2023-12-31T05:25:24.242Z,16.25
2023-12-31T05:30:29.656Z,18.00
2023-12-31T05:35:35.228Z,21.00
2023-12-31T05:40:40.188Z,19.75
2023-12-31T05:45:45.177Z,17.00
2023-12-31T05:50:50.529Z,16.00
2023-12-31T05:55:55.751Z,20.25
2023-12-31T06:01:01.597Z,19.75
2023-12-31T06:06:07.349Z,18.75
2023-12-31T06:11:12.898Z,16.00
2023-12-31T06:16:18.424Z,18.25
2023-12-31T06:21:24.889Z,20.75
2023-12-31T06:26:30.808Z,17.00
2023-12-31T06:31:36.921Z,16.00
2023-12-31T06:36:43.042Z,15.00
2023-12-31T06:41:48.684Z,17.00
2023-12-31T06:46:55.017Z,20.00
2023-12-31T06:52:00.344Z,17.50
2023-12-31T06:57:09.399Z,17.25
2023-12-31T07:02:16.860Z,15.00
2023-12-31T07:07:23.554Z,17.50
2023-12-31T07:12:30.039Z,18.25
2023-12-31T07:17:36.904Z,19.50
2023-12-31T07:22:42.310Z,16.00
2023-12-31T07:27:47.285Z,18.50
2023-12-31T07:32:52.016Z,17.00
2023-12-31T07:37:58.312Z,17.50
2023-12-31T07:43:03.940Z,18.75
2023-12-31T07:48:11.902Z,17.25
2023-12-31T07:53:16.720Z,19.75
2023-12-31T07:58:21.256Z,25.50
2023-12-31T08:03:25.823Z,19.00
2023-12-31T08:08:30.494Z,21.00
2023-12-31T08:13:37.514Z,19.00
2023-12-31T08:18:42.747Z,20.25
2023-12-31T08:23:48.246Z,18.75
2023-12-31T08:28:54.470Z,22.00
2023-12-31T08:33:59.667Z,23.25
2023-12-31T08:39:09.261Z,26.50
2023-12-31T08:44:14.404Z,23.75
2023-12-31T08:49:19.343Z,20.75
2023-12-31T08:54:26.055Z,20.25
2023-12-31T08:59:30.515Z,21.25
2023-12-31T09:04:36.760Z,24.25
2023-12-31T09:09:41.585Z,23.00
2023-12-31T09:14:46.630Z,29.00
2023-12-31T09:19:51.229Z,20.75
2023-12-31T09:24:55.904Z,20.50
2023-12-31T09:30:00.332Z,22.25
2023-12-31T09:35:05.177Z,22.25
2023-12-31T09:40:13.135Z,23.00
2023-12-31T09:45:21.426Z,31.25
2023-12-31T09:50:28.641Z,28.25
2023-12-31T09:55:36.949Z,24.75
2023-12-31T10:00:41.641Z,26.25
2023-12-31T10:05:48.698Z,28.50
2023-12-31T10:10:58.314Z,21.75
2023-12-31T10:16:12.691Z,28.75
2023-12-31T10:21:17.525Z,23.75
2023-12-31T10:26:22.135Z,27.00
2023-12-31T10:31:28.213Z,28.00
2023-12-31T10:36:35.078Z,24.00
2023-12-31T10:41:39.951Z,24.25
2023-12-31T10:46:45.267Z,24.00
2023-12-31T10:51:50.466Z,24.00
2023-12-31T10:56:57.230Z,27.50
2023-12-31T11:02:02.237Z,30.00
2023-12-31T11:07:07.674Z,25.00
2023-12-31T11:12:13.058Z,27.00
2023-12-31T11:17:31.566Z,28.25
2023-12-31T11:23:03.310Z,29.25
2023-12-31T11:28:11.048Z,31.25
2023-12-31T11:33:18.251Z,28.25
2023-12-31T11:38:23.399Z,27.50
2023-12-31T11:43:37.945Z,32.50
2023-12-31T11:48:44.495Z,35.50
2023-12-31T11:53:53.940Z,36.00
2023-12-31T11:58:59.689Z,29.00
2023-12-31T12:04:06.197Z,28.00
2023-12-31T12:09:14.417Z,30.50
2023-12-31T12:14:19.751Z,30.25
2023-12-31T12:19:26.319Z,25.75
2023-12-31T12:24:32.461Z,32.75
2023-12-31T12:29:41.021Z,28.75
2023-12-31T12:34:51.032Z,35.00
2023-12-31T12:39:59.704Z,30.50
2023-12-31T12:45:05.860Z,36.75
2023-12-31T12:50:12.713Z,34.25
2023-12-31T12:55:18.692Z,35.00
2023-12-31T13:00:25.308Z,35.50
2023-12-31T13:05:34.105Z,32.50
2023-12-31T13:10:42.330Z,34.25
2023-12-31T13:15:49.929Z,36.50
2023-12-31T13:20:59.157Z,32.75
2023-12-31T13:26:05.924Z,34.25
2023-12-31T13:31:21.239Z,29.00
2023-12-31T13:36:34.276Z,30.50
2023-12-31T13:41:39.087Z,36.00
2023-12-31T13:46:44.041Z,33.25
2023-12-31T13:51:50.569Z,30.50
2023-12-31T13:56:57.430Z,31.25
2023-12-31T14:02:04.019Z,33.00
2023-12-31T14:07:11.836Z,30.50
2023-12-31T14:12:23.378Z,35.00
2023-12-31T14:17:31.370Z,36.00
2023-12-31T14:22:37.374Z,28.75
2023-12-31T14:27:43.748Z,29.25
2023-12-31T14:32:49.648Z,30.75
2023-12-31T14:37:55.791Z,32.00
2023-12-31T14:43:04.248Z,25.50
2023-12-31T14:48:10.690Z,32.75
2023-12-31T14:53:16.782Z,31.00
2023-12-31T14:58:24.337Z,22.50
2023-12-31T15:03:33.818Z,31.25
2023-12-31T15:08:40.577Z,31.00
2023-12-31T15:13:48.161Z,31.00
2023-12-31T15:18:54.568Z,32.00
2023-12-31T15:24:01.336Z,26.00
2023-12-31T15:29:10.903Z,29.50
2023-12-31T15:34:20.704Z,30.00
2023-12-31T15:39:29.119Z,30.75
2023-12-31T15:44:36.862Z,30.00
2023-12-31T15:49:43.372Z,32.25
2023-12-31T15:55:10.884Z,28.50
2023-12-31T16:00:20.544Z,28.00
2023-12-31T16:05:27.944Z,77.75
2023-12-31T16:10:34.037Z,75.00
2023-12-31T16:15:43.210Z,70.75
2023-12-31T16:20:51.821Z,70.00
2023-12-31T16:26:03.078Z,64.50
2023-12-31T16:31:09.446Z,67.25
2023-12-31T16:36:16.811Z,64.75
2023-12-31T16:41:24.939Z,59.25
2023-12-31T16:46:34.445Z,68.75
2023-12-31T16:51:40.558Z,56.25
2023-12-31T16:56:46.723Z,56.75
2023-12-31T17:01:54.416Z,57.75
2023-12-31T17:07:04.676Z,61.25
2023-12-31T17:12:17.983Z,56.00
2023-12-31T17:17:24.278Z,53.25
2023-12-31T17:22:33.505Z,51.75
2023-12-31T17:27:40.990Z,48.50
2023-12-31T17:32:47.480Z,54.50
2023-12-31T17:37:54.127Z,50.00
2023-12-31T17:43:00.608Z,51.00
2023-12-31T17:48:07.124Z,46.75
2023-12-31T17:53:13.036Z,49.25
2023-12-31T17:58:19.291Z,45.00
2023-12-31T18:03:26.927Z,47.00
2023-12-31T18:08:33.208Z,47.50
2023-12-31T18:13:39.157Z,47.75
2023-12-31T18:18:45.842Z,44.75
2023-12-31T18:23:55.628Z,42.50
2023-12-31T18:29:01.649Z,40.00
2023-12-31T18:34:07.928Z,41.50
2023-12-31T18:39:14.217Z,46.25
2023-12-31T18:44:20.539Z,41.50
2023-12-31T18:49:31.551Z,39.75
2023-12-31T18:54:38.073Z,40.25
2023-12-31T18:59:45.343Z,38.75
2023-12-31T19:04:52.336Z,46.50
2023-12-31T19:09:58.733Z,43.75
2023-12-31T19:15:05.980Z,33.75
2023-12-31T19:20:15.496Z,38.50
2023-12-31T19:25:21.365Z,41.50
2023-12-31T19:30:26.735Z,35.75
2023-12-31T19:35:32.696Z,35.00
2023-12-31T19:40:39.027Z,33.00
2023-12-31T19:45:45.318Z,33.25
2023-12-31T19:50:52.100Z,42.25
2023-12-31T19:55:58.253Z,39.00
2023-12-31T20:01:04.211Z,35.00
2023-12-31T20:06:10.386Z,31.75
2023-12-31T20:11:16.051Z,34.75
2023-12-31T20:16:21.937Z,33.00
2023-12-31T20:21:45.417Z,34.25
2023-12-31T20:26:51.637Z,32.00
2023-12-31T20:31:57.533Z,31.50
2023-12-31T20:37:05.078Z,32.50
2023-12-31T20:42:11.056Z,32.25
2023-12-31T20:47:16.911Z,35.25
2023-12-31T20:52:22.818Z,31.75
2023-12-31T20:57:29.120Z,35.50
2023-12-31T21:02:35.268Z,30.25
2023-12-31T21:07:42.052Z,29.75
2023-12-31T21:12:48.075Z,34.50
2023-12-31T21:17:55.054Z,28.25
2023-12-31T21:23:02.631Z,34.25
2023-12-31T21:28:10.111Z,37.00
2023-12-31T21:33:16.399Z,34.50
2023-12-31T21:38:22.008Z,35.00
2023-12-31T21:43:27.827Z,33.25
2023-12-31T21:48:33.386Z,30.25
2023-12-31T21:53:39.350Z,39.25
2023-12-31T21:58:44.622Z,30.50
2023-12-31T22:03:50.631Z,32.00
2023-12-31T22:08:56.652Z,30.75
2023-12-31T22:14:02.513Z,32.75
2023-12-31T22:19:07.797Z,31.50
2023-12-31T22:24:13.673Z,29.25
2023-12-31T22:29:20.412Z,28.25
2023-12-31T22:34:26.824Z,34.50
2023-12-31T22:39:32.147Z,31.25
2023-12-31T22:44:37.820Z,31.50
2023-12-31T22:49:43.201Z,32.00
2023-12-31T22:54:48.784Z,31.50
2023-12-31T22:59:54.493Z,35.00
2023-12-31T23:05:00.217Z,32.75
2023-12-31T23:10:07.247Z,34.50
2023-12-31T23:15:12.922Z,29.25
2023-12-31T23:20:19.205Z,33.75
2023-12-31T23:25:24.791Z,37.25
2023-12-31T23:30:30.655Z,35.75
2023-12-31T23:35:36.554Z,30.75
2023-12-31T23:40:42.528Z,41.25
2023-12-31T23:45:48.647Z,45.00
2023-12-31T23:50:55.033Z,42.00
2023-12-31T23:56:01.115Z,36.25
